Terminal Aerodrome Forecast
Issued by NWS

Home | Current Version | Previous Version | Text Only | Print | Product List | Glossary On
Versions: 1 2 3 4 5 6 7 8 9 10 11 12 13 14 15 16 17 18 19 20 21 22 23 24 25 26 27 28 29 30 31 32 33 34 35 36 37 38 39
000
FTUS43 KDMX 250315 AAA
TAFFOD
TAF AMD
KFOD 250315Z 2503/2524 17005KT 4SM BR VCSH SCT009 BKN050
      TEMPO 2503/2506 1SM BR BKN008
     FM250600 22005KT 4SM -SHRA BR OVC005
     FM251000 24007KT 5SM BR BKN003
     FM251400 23008KT 6SM BR SCT007 BKN030
     FM251800 22011KT P6SM SCT030 BKN100=

USA.gov is the U.S. government's official web portal to all federal, state and local government web resources and services.